createdAt,value
2023-02-20T00:02:35.396Z,1.5
2023-02-20T00:14:35.387Z,1.5
2023-02-20T00:26:35.419Z,1.2
2023-02-20T00:38:35.440Z,1.2
2023-02-20T00:50:35.387Z,1.2
2023-02-20T01:02:35.484Z,1.1
2023-02-20T01:14:35.419Z,1.1
2023-02-20T01:26:35.397Z,1.2
2023-02-20T01:38:35.328Z,1.2
2023-02-20T01:50:35.348Z,1.2
2023-02-20T02:02:35.400Z,0.9
2023-02-20T02:14:35.422Z,0.9
2023-02-20T02:26:35.441Z,0.8
2023-02-20T02:38:35.341Z,0.8
2023-02-20T02:50:35.328Z,0.8
2023-02-20T03:02:35.354Z,0.8
2023-02-20T03:14:35.327Z,0.8
2023-02-20T03:26:35.360Z,1.0
2023-02-20T03:38:35.418Z,1.0
2023-02-20T03:50:35.335Z,1.0
2023-02-20T04:02:35.383Z,1.1
2023-02-20T04:14:35.332Z,1.1
2023-02-20T04:26:35.380Z,0.8
2023-02-20T04:38:35.418Z,0.8
2023-02-20T04:50:35.325Z,0.8
2023-02-20T05:02:35.321Z,0.8
2023-02-20T05:14:35.322Z,0.8
2023-02-20T05:26:35.413Z,0.8
2023-02-20T05:38:35.406Z,0.8
2023-02-20T05:50:35.330Z,0.8
2023-02-20T06:02:35.331Z,0.8
2023-02-20T06:14:35.323Z,0.8
2023-02-20T06:26:35.432Z,0.8
2023-02-20T06:38:35.445Z,0.8
2023-02-20T06:50:35.329Z,0.8
2023-02-20T07:02:35.339Z,0.7
2023-02-20T07:14:35.397Z,0.7
2023-02-20T07:26:35.363Z,0.6
2023-02-20T07:38:35.335Z,0.6
2023-02-20T07:50:35.355Z,0.6
2023-02-20T08:02:35.338Z,1.6
2023-02-20T08:14:35.449Z,1.6
2023-02-20T08:26:35.391Z,1.6
2023-02-20T08:38:35.381Z,1.6
2023-02-20T08:50:36.777Z,1.6
2023-02-20T09:02:35.406Z,0.9
2023-02-20T09:14:35.414Z,0.9
2023-02-20T09:26:35.371Z,1.8
2023-02-20T09:38:35.329Z,1.8
2023-02-20T09:50:35.331Z,1.8
2023-02-20T10:02:35.523Z,1.4
2023-02-20T10:14:35.410Z,1.4
2023-02-20T10:26:35.336Z,11.6
2023-02-20T10:38:35.376Z,11.6
2023-02-20T10:50:35.443Z,11.6
2023-02-20T11:02:35.427Z,9.0
2023-02-20T11:14:40.471Z,9.0
2023-02-20T11:26:35.497Z,6.1
2023-02-20T11:38:35.334Z,6.1
2023-02-20T11:50:35.423Z,6.1
2023-02-20T12:02:35.381Z,5.7
2023-02-20T12:14:35.337Z,5.7
2023-02-20T12:26:37.597Z,4.5
2023-02-20T12:38:35.400Z,4.5
2023-02-20T12:50:35.403Z,4.5
2023-02-20T13:02:42.366Z,5.0
2023-02-20T13:14:35.332Z,5.0
2023-02-20T13:26:35.377Z,4.9
2023-02-20T13:38:35.415Z,4.9
2023-02-20T13:50:35.333Z,4.9
2023-02-20T14:02:35.367Z,5.0
2023-02-20T14:14:35.354Z,5.0
2023-02-20T14:26:35.444Z,4.0
2023-02-20T14:38:35.435Z,4.0
2023-02-20T14:50:35.325Z,4.0
2023-02-20T15:02:35.362Z,3.5
2023-02-20T15:14:35.441Z,3.5
2023-02-20T15:26:35.447Z,4.1
2023-02-20T15:38:35.414Z,4.1
2023-02-20T15:50:35.334Z,4.1
2023-02-20T16:02:35.576Z,3.3
2023-02-20T16:14:35.345Z,3.3
2023-02-20T16:26:35.387Z,2.2
2023-02-20T16:38:35.642Z,2.2
2023-02-20T16:50:35.382Z,2.2
2023-02-20T17:02:35.405Z,2.0
2023-02-20T17:14:35.435Z,2.0
2023-02-20T17:26:35.416Z,2.1
2023-02-20T17:38:35.397Z,2.1
2023-02-20T17:50:35.463Z,2.1
2023-02-20T18:02:35.332Z,2.7
2023-02-20T18:14:35.352Z,2.7
2023-02-20T18:26:35.322Z,1.7
2023-02-20T18:38:35.368Z,1.7
2023-02-20T18:50:35.333Z,1.7
2023-02-20T19:02:35.418Z,1.8
2023-02-20T19:14:35.324Z,1.8
2023-02-20T19:26:35.325Z,2.0
2023-02-20T19:38:35.388Z,2.0
2023-02-20T19:50:35.468Z,2.0
2023-02-20T20:02:35.359Z,3.2
2023-02-20T20:14:35.400Z,3.2
2023-02-20T20:26:35.414Z,3.0
2023-02-20T20:38:35.329Z,3.0
2023-02-20T20:50:35.328Z,3.0
2023-02-20T21:02:35.445Z,3.2
2023-02-20T21:14:39.856Z,3.2
2023-02-20T21:26:35.334Z,3.4
2023-02-20T21:38:35.401Z,3.4
2023-02-20T21:50:35.388Z,3.4
2023-02-20T22:02:35.490Z,4.0
2023-02-20T22:14:35.362Z,4.0
2023-02-20T22:26:35.405Z,4.1
2023-02-20T22:38:35.385Z,4.1
2023-02-20T22:50:35.340Z,4.1
2023-02-20T23:02:35.337Z,3.9
2023-02-20T23:14:35.536Z,3.9
2023-02-20T23:26:35.445Z,3.7
2023-02-20T23:38:35.349Z,3.7
2023-02-20T23:50:35.404Z,3.7
